sensor_id;sensor_type;location;lat;lon;timestamp;P1;durP1;ratioP1;P2;durP2;ratioP2
9160;SDS011;4615;51.340;8.288;2022-08-05T00:01:47;10.45;;;5.85;;
9160;SDS011;4615;51.340;8.288;2022-08-05T00:04:14;8.05;;;6.07;;
9160;SDS011;4615;51.340;8.288;2022-08-05T00:06:42;7.78;;;5.97;;
9160;SDS011;4615;51.340;8.288;2022-08-05T00:09:09;7.85;;;5.28;;
9160;SDS011;4615;51.340;8.288;2022-08-05T00:11:35;8.63;;;6.22;;
9160;SDS011;4615;51.340;8.288;2022-08-05T00:14:01;7.97;;;5.88;;
9160;SDS011;4615;51.340;8.288;2022-08-05T00:16:28;7.35;;;5.75;;
9160;SDS011;4615;51.340;8.288;2022-08-05T00:18:55;7.55;;;6.25;;
9160;SDS011;4615;51.340;8.288;2022-08-05T00:21:21;6.50;;;4.97;;
9160;SDS011;4615;51.340;8.288;2022-08-05T00:23:49;9.05;;;5.70;;
9160;SDS011;4615;51.340;8.288;2022-08-05T00:26:15;6.85;;;5.50;;
9160;SDS011;4615;51.340;8.288;2022-08-05T00:28:43;9.00;;;6.15;;
9160;SDS011;4615;51.340;8.288;2022-08-05T00:31:10;9.60;;;5.60;;
9160;SDS011;4615;51.340;8.288;2022-08-05T00:33:36;9.70;;;6.20;;
9160;SDS011;4615;51.340;8.288;2022-08-05T00:36:03;14.32;;;7.30;;
9160;SDS011;4615;51.340;8.288;2022-08-05T00:38:29;14.05;;;7.53;;
9160;SDS011;4615;51.340;8.288;2022-08-05T00:40:57;12.73;;;7.20;;
9160;SDS011;4615;51.340;8.288;2022-08-05T00:43:24;12.82;;;8.00;;
9160;SDS011;4615;51.340;8.288;2022-08-05T00:45:50;9.80;;;8.32;;
9160;SDS011;4615;51.340;8.288;2022-08-05T00:48:18;13.65;;;9.10;;
9160;SDS011;4615;51.340;8.288;2022-08-05T00:50:45;15.73;;;9.87;;
9160;SDS011;4615;51.340;8.288;2022-08-05T00:53:12;10.18;;;9.18;;
9160;SDS011;4615;51.340;8.288;2022-08-05T00:55:40;11.95;;;9.25;;
9160;SDS011;4615;51.340;8.288;2022-08-05T00:58:07;13.52;;;9.60;;
9160;SDS011;4615;51.340;8.288;2022-08-05T01:00:34;10.13;;;9.00;;
9160;SDS011;4615;51.340;8.288;2022-08-05T01:03:00;12.93;;;10.07;;
9160;SDS011;4615;51.340;8.288;2022-08-05T01:05:27;11.10;;;9.93;;
9160;SDS011;4615;51.340;8.288;2022-08-05T01:07:54;14.18;;;10.40;;
9160;SDS011;4615;51.340;8.288;2022-08-05T01:10:21;13.30;;;11.03;;
9160;SDS011;4615;51.340;8.288;2022-08-05T01:13:03;14.80;;;10.20;;
9160;SDS011;4615;51.340;8.288;2022-08-05T01:15:33;14.15;;;10.60;;
9160;SDS011;4615;51.340;8.288;2022-08-05T01:18:01;12.98;;;10.52;;
9160;SDS011;4615;51.340;8.288;2022-08-05T01:20:29;15.63;;;10.00;;
9160;SDS011;4615;51.340;8.288;2022-08-05T01:22:59;15.67;;;12.57;;
9160;SDS011;4615;51.340;8.288;2022-08-05T01:28:14;14.02;;;11.77;;
9160;SDS011;4615;51.340;8.288;2022-08-05T01:30:42;12.98;;;11.40;;
9160;SDS011;4615;51.340;8.288;2022-08-05T01:33:09;15.02;;;13.38;;
9160;SDS011;4615;51.340;8.288;2022-08-05T01:35:38;16.23;;;14.73;;
9160;SDS011;4615;51.340;8.288;2022-08-05T01:38:06;15.68;;;14.05;;
9160;SDS011;4615;51.340;8.288;2022-08-05T01:40:33;15.68;;;14.15;;
9160;SDS011;4615;51.340;8.288;2022-08-05T01:43:01;14.50;;;13.10;;
9160;SDS011;4615;51.340;8.288;2022-08-05T01:45:29;16.17;;;14.48;;
9160;SDS011;4615;51.340;8.288;2022-08-05T01:47:57;15.23;;;13.65;;
9160;SDS011;4615;51.340;8.288;2022-08-05T01:50:25;15.77;;;14.13;;
9160;SDS011;4615;51.340;8.288;2022-08-05T01:52:52;15.23;;;13.53;;
9160;SDS011;4615;51.340;8.288;2022-08-05T01:55:20;15.80;;;13.75;;
9160;SDS011;4615;51.340;8.288;2022-08-05T01:57:47;16.77;;;14.23;;
9160;SDS011;4615;51.340;8.288;2022-08-05T02:00:15;16.77;;;15.02;;
9160;SDS011;4615;51.340;8.288;2022-08-05T02:02:44;15.05;;;13.60;;
9160;SDS011;4615;51.340;8.288;2022-08-05T02:05:13;15.80;;;14.17;;
9160;SDS011;4615;51.340;8.288;2022-08-05T02:07:40;14.82;;;13.45;;
9160;SDS011;4615;51.340;8.288;2022-08-05T02:10:08;15.97;;;14.40;;
9160;SDS011;4615;51.340;8.288;2022-08-05T02:12:37;15.18;;;13.73;;
9160;SDS011;4615;51.340;8.288;2022-08-05T02:15:07;14.93;;;13.52;;
9160;SDS011;4615;51.340;8.288;2022-08-05T02:17:37;15.03;;;13.63;;
9160;SDS011;4615;51.340;8.288;2022-08-05T02:20:07;14.68;;;13.38;;
9160;SDS011;4615;51.340;8.288;2022-08-05T02:22:38;14.98;;;13.48;;
9160;SDS011;4615;51.340;8.288;2022-08-05T02:25:06;15.75;;;14.18;;
9160;SDS011;4615;51.340;8.288;2022-08-05T02:27:35;15.30;;;13.70;;
9160;SDS011;4615;51.340;8.288;2022-08-05T02:30:04;16.75;;;15.23;;
9160;SDS011;4615;51.340;8.288;2022-08-05T02:32:31;17.23;;;15.67;;
9160;SDS011;4615;51.340;8.288;2022-08-05T02:34:59;17.53;;;15.87;;
9160;SDS011;4615;51.340;8.288;2022-08-05T02:37:28;16.08;;;14.48;;
9160;SDS011;4615;51.340;8.288;2022-08-05T02:39:55;16.70;;;15.20;;
9160;SDS011;4615;51.340;8.288;2022-08-05T02:42:22;16.20;;;14.77;;
9160;SDS011;4615;51.340;8.288;2022-08-05T02:44:49;17.93;;;16.23;;
9160;SDS011;4615;51.340;8.288;2022-08-05T02:47:16;16.50;;;14.80;;
9160;SDS011;4615;51.340;8.288;2022-08-05T02:49:42;16.27;;;14.67;;
9160;SDS011;4615;51.340;8.288;2022-08-05T02:52:12;15.18;;;13.68;;
9160;SDS011;4615;51.340;8.288;2022-08-05T02:54:41;16.47;;;14.77;;
9160;SDS011;4615;51.340;8.288;2022-08-05T02:57:11;16.10;;;14.70;;
9160;SDS011;4615;51.340;8.288;2022-08-05T02:59:38;15.27;;;13.83;;
9160;SDS011;4615;51.340;8.288;2022-08-05T03:02:05;16.10;;;14.50;;
9160;SDS011;4615;51.340;8.288;2022-08-05T03:04:33;15.87;;;14.37;;
9160;SDS011;4615;51.340;8.288;2022-08-05T03:06:59;15.90;;;14.30;;
9160;SDS011;4615;51.340;8.288;2022-08-05T03:09:26;16.42;;;14.82;;
9160;SDS011;4615;51.340;8.288;2022-08-05T03:11:54;17.40;;;15.63;;
9160;SDS011;4615;51.340;8.288;2022-08-05T03:14:20;18.00;;;16.27;;
9160;SDS011;4615;51.340;8.288;2022-08-05T03:16:46;17.35;;;15.75;;
9160;SDS011;4615;51.340;8.288;2022-08-05T03:19:13;17.70;;;16.00;;
9160;SDS011;4615;51.340;8.288;2022-08-05T03:21:39;17.33;;;15.32;;
9160;SDS011;4615;51.340;8.288;2022-08-05T03:24:06;15.67;;;14.17;;
9160;SDS011;4615;51.340;8.288;2022-08-05T03:26:33;16.85;;;15.10;;
9160;SDS011;4615;51.340;8.288;2022-08-05T03:29:01;16.70;;;14.97;;
9160;SDS011;4615;51.340;8.288;2022-08-05T03:31:28;18.03;;;16.23;;
9160;SDS011;4615;51.340;8.288;2022-08-05T03:33:55;17.60;;;15.77;;
9160;SDS011;4615;51.340;8.288;2022-08-05T03:36:22;18.67;;;16.73;;
9160;SDS011;4615;51.340;8.288;2022-08-05T03:38:48;15.87;;;14.23;;
9160;SDS011;4615;51.340;8.288;2022-08-05T03:41:15;15.90;;;14.40;;
9160;SDS011;4615;51.340;8.288;2022-08-05T03:43:42;18.33;;;16.53;;
9160;SDS011;4615;51.340;8.288;2022-08-05T03:46:09;18.77;;;17.00;;
9160;SDS011;4615;51.340;8.288;2022-08-05T03:48:36;18.07;;;16.23;;
9160;SDS011;4615;51.340;8.288;2022-08-05T03:51:05;19.90;;;17.27;;
9160;SDS011;4615;51.340;8.288;2022-08-05T03:53:34;18.80;;;17.00;;
9160;SDS011;4615;51.340;8.288;2022-08-05T03:56:03;21.70;;;19.20;;
9160;SDS011;4615;51.340;8.288;2022-08-05T03:58:31;19.53;;;17.33;;
9160;SDS011;4615;51.340;8.288;2022-08-05T04:00:59;21.43;;;19.17;;
9160;SDS011;4615;51.340;8.288;2022-08-05T04:03:28;20.10;;;18.00;;
9160;SDS011;4615;51.340;8.288;2022-08-05T04:06:00;21.67;;;19.37;;
9160;SDS011;4615;51.340;8.288;2022-08-05T04:08:26;23.33;;;20.50;;
9160;SDS011;4615;51.340;8.288;2022-08-05T04:10:54;19.97;;;17.80;;
9160;SDS011;4615;51.340;8.288;2022-08-05T04:13:21;21.87;;;19.57;;
9160;SDS011;4615;51.340;8.288;2022-08-05T04:15:48;20.07;;;18.00;;
9160;SDS011;4615;51.340;8.288;2022-08-05T04:18:14;24.10;;;20.13;;
9160;SDS011;4615;51.340;8.288;2022-08-05T04:20:43;13.70;;;12.37;;
9160;SDS011;4615;51.340;8.288;2022-08-05T04:23:09;12.03;;;10.83;;
9160;SDS011;4615;51.340;8.288;2022-08-05T04:25:36;12.17;;;10.97;;
9160;SDS011;4615;51.340;8.288;2022-08-05T04:28:02;11.10;;;10.10;;
9160;SDS011;4615;51.340;8.288;2022-08-05T04:30:29;11.43;;;10.27;;
9160;SDS011;4615;51.340;8.288;2022-08-05T04:32:55;11.67;;;10.57;;
9160;SDS011;4615;51.340;8.288;2022-08-05T04:35:22;12.47;;;11.33;;
9160;SDS011;4615;51.340;8.288;2022-08-05T04:37:49;12.70;;;11.50;;
9160;SDS011;4615;51.340;8.288;2022-08-05T04:40:16;11.17;;;10.17;;
9160;SDS011;4615;51.340;8.288;2022-08-05T04:42:42;10.70;;;9.80;;
9160;SDS011;4615;51.340;8.288;2022-08-05T04:45:09;10.60;;;9.60;;
9160;SDS011;4615;51.340;8.288;2022-08-05T04:47:35;10.33;;;8.73;;
9160;SDS011;4615;51.340;8.288;2022-08-05T04:50:02;9.80;;;9.00;;
9160;SDS011;4615;51.340;8.288;2022-08-05T04:52:28;8.97;;;8.17;;
9160;SDS011;4615;51.340;8.288;2022-08-05T04:54:56;9.93;;;8.93;;
9160;SDS011;4615;51.340;8.288;2022-08-05T04:57:23;10.40;;;9.40;;
9160;SDS011;4615;51.340;8.288;2022-08-05T04:59:49;11.10;;;9.27;;
9160;SDS011;4615;51.340;8.288;2022-08-05T05:02:15;8.33;;;7.63;;
9160;SDS011;4615;51.340;8.288;2022-08-05T05:04:42;9.83;;;9.03;;
9160;SDS011;4615;51.340;8.288;2022-08-05T05:07:08;10.13;;;8.83;;
9160;SDS011;4615;51.340;8.288;2022-08-05T05:09:35;9.17;;;8.37;;
9160;SDS011;4615;51.340;8.288;2022-08-05T05:12:03;10.17;;;9.27;;
9160;SDS011;4615;51.340;8.288;2022-08-05T05:14:30;9.20;;;8.40;;
9160;SDS011;4615;51.340;8.288;2022-08-05T05:16:56;7.90;;;7.20;;
9160;SDS011;4615;51.340;8.288;2022-08-05T05:19:23;7.20;;;6.50;;
9160;SDS011;4615;51.340;8.288;2022-08-05T05:21:49;7.83;;;7.13;;
9160;SDS011;4615;51.340;8.288;2022-08-05T05:24:16;8.90;;;8.13;;
9160;SDS011;4615;51.340;8.288;2022-08-05T05:26:43;9.40;;;8.10;;
9160;SDS011;4615;51.340;8.288;2022-08-05T05:29:11;8.30;;;7.50;;
9160;SDS011;4615;51.340;8.288;2022-08-05T05:31:37;8.57;;;7.60;;
9160;SDS011;4615;51.340;8.288;2022-08-05T05:34:04;8.67;;;7.63;;
9160;SDS011;4615;51.340;8.288;2022-08-05T05:36:30;9.47;;;8.60;;
9160;SDS011;4615;51.340;8.288;2022-08-05T05:38:57;8.93;;;8.03;;
9160;SDS011;4615;51.340;8.288;2022-08-05T05:41:23;8.23;;;7.57;;
9160;SDS011;4615;51.340;8.288;2022-08-05T05:43:50;9.63;;;8.73;;
9160;SDS011;4615;51.340;8.288;2022-08-05T05:46:17;9.87;;;8.97;;
9160;SDS011;4615;51.340;8.288;2022-08-05T05:48:44;10.47;;;9.47;;
9160;SDS011;4615;51.340;8.288;2022-08-05T05:51:16;10.80;;;9.73;;
9160;SDS011;4615;51.340;8.288;2022-08-05T05:53:45;15.17;;;9.07;;
9160;SDS011;4615;51.340;8.288;2022-08-05T05:56:11;10.07;;;9.17;;
9160;SDS011;4615;51.340;8.288;2022-08-05T05:58:38;10.27;;;9.37;;
9160;SDS011;4615;51.340;8.288;2022-08-05T06:01:04;10.40;;;9.40;;
9160;SDS011;4615;51.340;8.288;2022-08-05T06:03:32;9.03;;;8.23;;
9160;SDS011;4615;51.340;8.288;2022-08-05T06:05:58;9.83;;;8.93;;
9160;SDS011;4615;51.340;8.288;2022-08-05T06:08:25;9.90;;;9.00;;
9160;SDS011;4615;51.340;8.288;2022-08-05T06:10:51;9.67;;;8.87;;
9160;SDS011;4615;51.340;8.288;2022-08-05T06:13:18;9.30;;;8.40;;
9160;SDS011;4615;51.340;8.288;2022-08-05T06:15:44;8.50;;;7.70;;
9160;SDS011;4615;51.340;8.288;2022-08-05T06:18:10;9.63;;;8.73;;
9160;SDS011;4615;51.340;8.288;2022-08-05T06:20:38;9.47;;;8.67;;
9160;SDS011;4615;51.340;8.288;2022-08-05T06:23:05;10.10;;;9.30;;
9160;SDS011;4615;51.340;8.288;2022-08-05T06:25:31;10.70;;;9.73;;
9160;SDS011;4615;51.340;8.288;2022-08-05T06:27:57;10.43;;;9.60;;
9160;SDS011;4615;51.340;8.288;2022-08-05T06:30:24;10.90;;;10.00;;
9160;SDS011;4615;51.340;8.288;2022-08-05T06:32:51;10.07;;;9.07;;
9160;SDS011;4615;51.340;8.288;2022-08-05T06:35:17;9.13;;;8.33;;
9160;SDS011;4615;51.340;8.288;2022-08-05T06:37:45;9.37;;;8.57;;
9160;SDS011;4615;51.340;8.288;2022-08-05T06:40:12;10.43;;;9.53;;
9160;SDS011;4615;51.340;8.288;2022-08-05T06:42:38;10.50;;;9.57;;
9160;SDS011;4615;51.340;8.288;2022-08-05T06:45:06;9.50;;;8.70;;
9160;SDS011;4615;51.340;8.288;2022-08-05T06:47:32;9.53;;;8.60;;
9160;SDS011;4615;51.340;8.288;2022-08-05T06:49:59;10.70;;;8.70;;
9160;SDS011;4615;51.340;8.288;2022-08-05T06:52:25;8.33;;;7.53;;
9160;SDS011;4615;51.340;8.288;2022-08-05T06:54:53;10.33;;;9.07;;
9160;SDS011;4615;51.340;8.288;2022-08-05T06:57:19;10.30;;;9.30;;
9160;SDS011;4615;51.340;8.288;2022-08-05T06:59:46;9.83;;;8.90;;
9160;SDS011;4615;51.340;8.288;2022-08-05T07:02:12;9.27;;;8.47;;
9160;SDS011;4615;51.340;8.288;2022-08-05T07:04:38;9.43;;;8.53;;
9160;SDS011;4615;51.340;8.288;2022-08-05T07:07:05;8.50;;;7.80;;
9160;SDS011;4615;51.340;8.288;2022-08-05T07:09:31;8.98;;;8.25;;
9160;SDS011;4615;51.340;8.288;2022-08-05T07:11:59;8.13;;;7.43;;
9160;SDS011;4615;51.340;8.288;2022-08-05T07:14:25;8.13;;;7.40;;
9160;SDS011;4615;51.340;8.288;2022-08-05T07:17:10;8.97;;;8.17;;
9160;SDS011;4615;51.340;8.288;2022-08-05T07:19:36;9.27;;;8.37;;
9160;SDS011;4615;51.340;8.288;2022-08-05T07:22:03;8.80;;;7.97;;
9160;SDS011;4615;51.340;8.288;2022-08-05T07:24:29;7.57;;;6.93;;
9160;SDS011;4615;51.340;8.288;2022-08-05T07:26:55;7.40;;;6.75;;
9160;SDS011;4615;51.340;8.288;2022-08-05T07:29:23;8.00;;;7.30;;
9160;SDS011;4615;51.340;8.288;2022-08-05T07:31:50;7.72;;;7.05;;
9160;SDS011;4615;51.340;8.288;2022-08-05T07:34:16;8.23;;;7.43;;
9160;SDS011;4615;51.340;8.288;2022-08-05T07:36:42;9.00;;;8.07;;
9160;SDS011;4615;51.340;8.288;2022-08-05T07:39:09;9.33;;;8.43;;
9160;SDS011;4615;51.340;8.288;2022-08-05T07:41:35;8.32;;;7.65;;
9160;SDS011;4615;51.340;8.288;2022-08-05T07:44:02;9.13;;;8.27;;
9160;SDS011;4615;51.340;8.288;2022-08-05T07:46:30;8.45;;;7.75;;
9160;SDS011;4615;51.340;8.288;2022-08-05T07:48:58;9.65;;;7.55;;
9160;SDS011;4615;51.340;8.288;2022-08-05T07:51:24;8.40;;;7.60;;
9160;SDS011;4615;51.340;8.288;2022-08-05T07:53:51;8.60;;;7.80;;
9160;SDS011;4615;51.340;8.288;2022-08-05T07:56:17;7.47;;;6.88;;
9160;SDS011;4615;51.340;8.288;2022-08-05T07:58:43;8.23;;;7.53;;
9160;SDS011;4615;51.340;8.288;2022-08-05T08:01:10;8.52;;;7.82;;
9160;SDS011;4615;51.340;8.288;2022-08-05T08:03:38;8.65;;;7.88;;
9160;SDS011;4615;51.340;8.288;2022-08-05T08:06:04;8.40;;;7.70;;
9160;SDS011;4615;51.340;8.288;2022-08-05T08:08:31;9.05;;;8.25;;
9160;SDS011;4615;51.340;8.288;2022-08-05T08:10:57;9.52;;;8.55;;
9160;SDS011;4615;51.340;8.288;2022-08-05T08:13:24;8.73;;;8.00;;
9160;SDS011;4615;51.340;8.288;2022-08-05T08:15:51;8.93;;;8.02;;
9160;SDS011;4615;51.340;8.288;2022-08-05T08:18:18;8.17;;;7.47;;
9160;SDS011;4615;51.340;8.288;2022-08-05T08:20:45;8.95;;;8.10;;
9160;SDS011;4615;51.340;8.288;2022-08-05T08:23:13;8.50;;;7.70;;
9160;SDS011;4615;51.340;8.288;2022-08-05T08:25:39;8.88;;;8.00;;
9160;SDS011;4615;51.340;8.288;2022-08-05T08:28:06;9.05;;;8.32;;
9160;SDS011;4615;51.340;8.288;2022-08-05T08:30:32;10.87;;;9.80;;
9160;SDS011;4615;51.340;8.288;2022-08-05T08:32:59;9.93;;;8.98;;
9160;SDS011;4615;51.340;8.288;2022-08-05T08:35:25;9.77;;;8.88;;
9160;SDS011;4615;51.340;8.288;2022-08-05T08:37:53;10.10;;;9.20;;
9160;SDS011;4615;51.340;8.288;2022-08-05T08:40:19;11.32;;;10.27;;
9160;SDS011;4615;51.340;8.288;2022-08-05T08:42:47;13.55;;;12.20;;
9160;SDS011;4615;51.340;8.288;2022-08-05T08:45:15;12.73;;;11.52;;
9160;SDS011;4615;51.340;8.288;2022-08-05T08:47:43;13.80;;;12.35;;
9160;SDS011;4615;51.340;8.288;2022-08-05T08:50:11;16.77;;;15.10;;
9160;SDS011;4615;51.340;8.288;2022-08-05T08:52:38;20.23;;;18.30;;
9160;SDS011;4615;51.340;8.288;2022-08-05T08:55:08;20.15;;;18.33;;
9160;SDS011;4615;51.340;8.288;2022-08-05T08:57:35;20.83;;;18.63;;
9160;SDS011;4615;51.340;8.288;2022-08-05T09:00:02;21.40;;;19.20;;
9160;SDS011;4615;51.340;8.288;2022-08-05T09:02:29;20.63;;;18.52;;
9160;SDS011;4615;51.340;8.288;2022-08-05T09:04:57;21.93;;;18.93;;
9160;SDS011;4615;51.340;8.288;2022-08-05T09:07:23;20.77;;;18.33;;
9160;SDS011;4615;51.340;8.288;2022-08-05T09:09:50;19.53;;;17.63;;
9160;SDS011;4615;51.340;8.288;2022-08-05T09:12:18;19.63;;;17.63;;
9160;SDS011;4615;51.340;8.288;2022-08-05T09:14:44;20.63;;;18.03;;
9160;SDS011;4615;51.340;8.288;2022-08-05T09:17:11;18.30;;;16.40;;
9160;SDS011;4615;51.340;8.288;2022-08-05T09:19:38;17.30;;;15.63;;
9160;SDS011;4615;51.340;8.288;2022-08-05T09:22:05;18.07;;;15.87;;
9160;SDS011;4615;51.340;8.288;2022-08-05T09:24:32;16.73;;;15.07;;
9160;SDS011;4615;51.340;8.288;2022-08-05T09:27:00;17.83;;;16.00;;
9160;SDS011;4615;51.340;8.288;2022-08-05T09:29:37;18.27;;;15.67;;
9160;SDS011;4615;51.340;8.288;2022-08-05T09:32:06;15.73;;;14.17;;
9160;SDS011;4615;51.340;8.288;2022-08-05T09:34:44;16.03;;;14.43;;
9160;SDS011;4615;51.340;8.288;2022-08-05T09:37:15;14.90;;;13.40;;
9160;SDS011;4615;51.340;8.288;2022-08-05T09:39:41;14.83;;;13.27;;
9160;SDS011;4615;51.340;8.288;2022-08-05T09:42:08;15.50;;;12.50;;
9160;SDS011;4615;51.340;8.288;2022-08-05T09:44:35;12.60;;;11.40;;
9160;SDS011;4615;51.340;8.288;2022-08-05T09:47:10;12.17;;;11.07;;
9160;SDS011;4615;51.340;8.288;2022-08-05T09:49:39;12.40;;;11.17;;
9160;SDS011;4615;51.340;8.288;2022-08-05T09:52:15;12.50;;;11.20;;
9160;SDS011;4615;51.340;8.288;2022-08-05T09:54:50;12.53;;;11.33;;
9160;SDS011;4615;51.340;8.288;2022-08-05T09:57:27;12.77;;;11.50;;
9160;SDS011;4615;51.340;8.288;2022-08-05T09:59:55;14.30;;;11.90;;
9160;SDS011;4615;51.340;8.288;2022-08-05T10:02:30;12.77;;;11.47;;
9160;SDS011;4615;51.340;8.288;2022-08-05T10:05:01;13.50;;;11.33;;
9160;SDS011;4615;51.340;8.288;2022-08-05T10:07:41;13.37;;;11.53;;
9160;SDS011;4615;51.340;8.288;2022-08-05T10:10:07;12.87;;;11.53;;
9160;SDS011;4615;51.340;8.288;2022-08-05T10:12:38;12.50;;;11.33;;
9160;SDS011;4615;51.340;8.288;2022-08-05T10:15:18;10.40;;;9.20;;
9160;SDS011;4615;51.340;8.288;2022-08-05T10:18:01;12.83;;;10.03;;
9160;SDS011;4615;51.340;8.288;2022-08-05T10:20:28;10.40;;;9.13;;
9160;SDS011;4615;51.340;8.288;2022-08-05T10:22:55;9.73;;;8.83;;
9160;SDS011;4615;51.340;8.288;2022-08-05T10:25:21;10.07;;;9.17;;
9160;SDS011;4615;51.340;8.288;2022-08-05T10:27:48;10.80;;;9.80;;
9160;SDS011;4615;51.340;8.288;2022-08-05T10:30:14;11.00;;;9.90;;
9160;SDS011;4615;51.340;8.288;2022-08-05T10:32:41;9.90;;;9.00;;
9160;SDS011;4615;51.340;8.288;2022-08-05T10:35:09;8.70;;;7.90;;
9160;SDS011;4615;51.340;8.288;2022-08-05T10:37:35;9.50;;;8.33;;
9160;SDS011;4615;51.340;8.288;2022-08-05T10:40:03;7.87;;;7.17;;
9160;SDS011;4615;51.340;8.288;2022-08-05T10:42:31;7.90;;;7.20;;
9160;SDS011;4615;51.340;8.288;2022-08-05T10:45:00;7.40;;;6.70;;
9160;SDS011;4615;51.340;8.288;2022-08-05T10:47:29;8.57;;;7.77;;
9160;SDS011;4615;51.340;8.288;2022-08-05T10:50:00;8.00;;;7.20;;
9160;SDS011;4615;51.340;8.288;2022-08-05T10:52:37;8.20;;;7.40;;
9160;SDS011;4615;51.340;8.288;2022-08-05T10:55:05;6.20;;;5.63;;
9160;SDS011;4615;51.340;8.288;2022-08-05T10:57:32;4.70;;;4.30;;
9160;SDS011;4615;51.340;8.288;2022-08-05T11:00:08;4.03;;;3.73;;
9160;SDS011;4615;51.340;8.288;2022-08-05T11:02:35;3.80;;;3.33;;
9160;SDS011;4615;51.340;8.288;2022-08-05T11:05:03;3.57;;;3.23;;
9160;SDS011;4615;51.340;8.288;2022-08-05T11:07:29;3.67;;;3.37;;
9160;SDS011;4615;51.340;8.288;2022-08-05T11:09:57;3.13;;;2.93;;
9160;SDS011;4615;51.340;8.288;2022-08-05T11:12:41;3.50;;;3.20;;
9160;SDS011;4615;51.340;8.288;2022-08-05T11:15:14;3.60;;;3.30;;
9160;SDS011;4615;51.340;8.288;2022-08-05T11:17:42;3.50;;;3.20;;
9160;SDS011;4615;51.340;8.288;2022-08-05T11:22:50;4.57;;;4.17;;
9160;SDS011;4615;51.340;8.288;2022-08-05T11:25:27;4.77;;;4.37;;
9160;SDS011;4615;51.340;8.288;2022-08-05T11:27:54;4.70;;;4.30;;
9160;SDS011;4615;51.340;8.288;2022-08-05T11:30:20;5.00;;;4.53;;
9160;SDS011;4615;51.340;8.288;2022-08-05T11:32:47;5.20;;;4.70;;
9160;SDS011;4615;51.340;8.288;2022-08-05T11:37:58;4.17;;;3.87;;
9160;SDS011;4615;51.340;8.288;2022-08-05T11:43:19;4.70;;;3.60;;
9160;SDS011;4615;51.340;8.288;2022-08-05T11:45:46;4.23;;;3.87;;
9160;SDS011;4615;51.340;8.288;2022-08-05T11:48:12;4.30;;;3.90;;
9160;SDS011;4615;51.340;8.288;2022-08-05T11:50:39;4.13;;;3.83;;
9160;SDS011;4615;51.340;8.288;2022-08-05T11:53:05;3.57;;;3.00;;
9160;SDS011;4615;51.340;8.288;2022-08-05T11:55:32;5.03;;;3.13;;
9160;SDS011;4615;51.340;8.288;2022-08-05T11:57:58;4.03;;;2.90;;
9160;SDS011;4615;51.340;8.288;2022-08-05T12:00:26;3.70;;;2.90;;
9160;SDS011;4615;51.340;8.288;2022-08-05T12:02:53;5.60;;;3.40;;
9160;SDS011;4615;51.340;8.288;2022-08-05T12:05:23;4.97;;;2.80;;
9160;SDS011;4615;51.340;8.288;2022-08-05T12:07:50;3.57;;;3.07;;
9160;SDS011;4615;51.340;8.288;2022-08-05T12:10:16;3.33;;;3.03;;
9160;SDS011;4615;51.340;8.288;2022-08-05T12:12:43;4.03;;;3.17;;
9160;SDS011;4615;51.340;8.288;2022-08-05T12:15:17;3.20;;;2.90;;
9160;SDS011;4615;51.340;8.288;2022-08-05T12:17:45;3.47;;;3.17;;
9160;SDS011;4615;51.340;8.288;2022-08-05T12:20:11;4.57;;;3.17;;
9160;SDS011;4615;51.340;8.288;2022-08-05T12:22:38;5.00;;;3.07;;
9160;SDS011;4615;51.340;8.288;2022-08-05T12:25:05;5.67;;;3.23;;
9160;SDS011;4615;51.340;8.288;2022-08-05T12:27:32;6.10;;;3.50;;
9160;SDS011;4615;51.340;8.288;2022-08-05T12:29:59;4.23;;;3.50;;
9160;SDS011;4615;51.340;8.288;2022-08-05T12:32:26;5.27;;;3.73;;
9160;SDS011;4615;51.340;8.288;2022-08-05T12:34:54;5.67;;;3.57;;
9160;SDS011;4615;51.340;8.288;2022-08-05T12:37:20;4.97;;;3.63;;
9160;SDS011;4615;51.340;8.288;2022-08-05T12:39:48;5.17;;;3.60;;
9160;SDS011;4615;51.340;8.288;2022-08-05T12:42:15;5.77;;;3.87;;
9160;SDS011;4615;51.340;8.288;2022-08-05T12:44:42;4.77;;;3.90;;
9160;SDS011;4615;51.340;8.288;2022-08-05T12:47:10;4.70;;;4.10;;
9160;SDS011;4615;51.340;8.288;2022-08-05T12:49:40;8.00;;;4.43;;
9160;SDS011;4615;51.340;8.288;2022-08-05T12:52:14;5.93;;;3.80;;
9160;SDS011;4615;51.340;8.288;2022-08-05T12:54:41;6.30;;;4.60;;
9160;SDS011;4615;51.340;8.288;2022-08-05T12:57:08;4.80;;;4.30;;
9160;SDS011;4615;51.340;8.288;2022-08-05T12:59:42;8.00;;;5.57;;
9160;SDS011;4615;51.340;8.288;2022-08-05T13:02:09;5.80;;;4.20;;
9160;SDS011;4615;51.340;8.288;2022-08-05T13:04:37;7.00;;;4.87;;
9160;SDS011;4615;51.340;8.288;2022-08-05T13:07:04;8.37;;;4.80;;
9160;SDS011;4615;51.340;8.288;2022-08-05T13:09:33;6.03;;;4.47;;
9160;SDS011;4615;51.340;8.288;2022-08-05T13:12:00;6.33;;;5.73;;
9160;SDS011;4615;51.340;8.288;2022-08-05T13:14:28;6.73;;;5.93;;
9160;SDS011;4615;51.340;8.288;2022-08-05T13:16:55;6.43;;;5.23;;
9160;SDS011;4615;51.340;8.288;2022-08-05T13:19:22;9.27;;;6.10;;
9160;SDS011;4615;51.340;8.288;2022-08-05T13:21:49;7.53;;;5.57;;
9160;SDS011;4615;51.340;8.288;2022-08-05T13:24:16;7.10;;;6.20;;
9160;SDS011;4615;51.340;8.288;2022-08-05T13:26:45;6.43;;;5.13;;
9160;SDS011;4615;51.340;8.288;2022-08-05T13:29:11;8.63;;;6.53;;
9160;SDS011;4615;51.340;8.288;2022-08-05T13:31:38;6.27;;;5.10;;
9160;SDS011;4615;51.340;8.288;2022-08-05T13:34:04;6.73;;;4.97;;
9160;SDS011;4615;51.340;8.288;2022-08-05T13:36:31;6.17;;;4.83;;
9160;SDS011;4615;51.340;8.288;2022-08-05T13:38:58;5.60;;;4.63;;
9160;SDS011;4615;51.340;8.288;2022-08-05T13:41:24;5.97;;;3.70;;
9160;SDS011;4615;51.340;8.288;2022-08-05T13:43:52;6.73;;;4.60;;
9160;SDS011;4615;51.340;8.288;2022-08-05T13:46:19;4.73;;;4.03;;
9160;SDS011;4615;51.340;8.288;2022-08-05T13:48:45;5.57;;;3.63;;
9160;SDS011;4615;51.340;8.288;2022-08-05T13:51:12;5.47;;;3.87;;
9160;SDS011;4615;51.340;8.288;2022-08-05T13:53:39;5.80;;;3.30;;
9160;SDS011;4615;51.340;8.288;2022-08-05T13:56:05;5.50;;;3.50;;
9160;SDS011;4615;51.340;8.288;2022-08-05T13:58:32;5.73;;;3.57;;
9160;SDS011;4615;51.340;8.288;2022-08-05T14:00:59;3.33;;;2.60;;
9160;SDS011;4615;51.340;8.288;2022-08-05T14:03:26;3.67;;;3.00;;
9160;SDS011;4615;51.340;8.288;2022-08-05T14:05:52;4.97;;;2.90;;
9160;SDS011;4615;51.340;8.288;2022-08-05T14:08:18;4.77;;;2.83;;
9160;SDS011;4615;51.340;8.288;2022-08-05T14:10:44;4.33;;;2.70;;
9160;SDS011;4615;51.340;8.288;2022-08-05T14:13:11;4.50;;;2.80;;
9160;SDS011;4615;51.340;8.288;2022-08-05T14:15:37;6.93;;;2.80;;
9160;SDS011;4615;51.340;8.288;2022-08-05T14:18:05;4.50;;;2.80;;
9160;SDS011;4615;51.340;8.288;2022-08-05T14:20:32;4.90;;;3.00;;
9160;SDS011;4615;51.340;8.288;2022-08-05T14:22:58;3.23;;;2.30;;
9160;SDS011;4615;51.340;8.288;2022-08-05T14:25:25;3.77;;;2.40;;
9160;SDS011;4615;51.340;8.288;2022-08-05T14:27:52;3.57;;;2.40;;
9160;SDS011;4615;51.340;8.288;2022-08-05T14:30:18;2.73;;;2.27;;
9160;SDS011;4615;51.340;8.288;2022-08-05T14:32:45;2.73;;;1.90;;
9160;SDS011;4615;51.340;8.288;2022-08-05T14:35:12;9.77;;;3.03;;
9160;SDS011;4615;51.340;8.288;2022-08-05T14:37:39;5.57;;;2.10;;
9160;SDS011;4615;51.340;8.288;2022-08-05T14:40:05;3.27;;;2.20;;
9160;SDS011;4615;51.340;8.288;2022-08-05T14:42:32;4.50;;;2.37;;
9160;SDS011;4615;51.340;8.288;2022-08-05T14:44:58;6.60;;;2.23;;
9160;SDS011;4615;51.340;8.288;2022-08-05T14:47:25;3.17;;;2.20;;
9160;SDS011;4615;51.340;8.288;2022-08-05T14:49:51;4.00;;;1.93;;
9160;SDS011;4615;51.340;8.288;2022-08-05T14:52:19;4.43;;;2.00;;
9160;SDS011;4615;51.340;8.288;2022-08-05T14:54:46;3.23;;;2.17;;
9160;SDS011;4615;51.340;8.288;2022-08-05T14:57:12;2.57;;;2.07;;
9160;SDS011;4615;51.340;8.288;2022-08-05T14:59:38;4.47;;;2.20;;
9160;SDS011;4615;51.340;8.288;2022-08-05T15:02:05;3.77;;;2.03;;
9160;SDS011;4615;51.340;8.288;2022-08-05T15:04:31;3.40;;;2.20;;
9160;SDS011;4615;51.340;8.288;2022-08-05T15:06:58;2.33;;;1.77;;
9160;SDS011;4615;51.340;8.288;2022-08-05T15:09:25;3.20;;;2.30;;
9160;SDS011;4615;51.340;8.288;2022-08-05T15:11:52;5.43;;;2.43;;
9160;SDS011;4615;51.340;8.288;2022-08-05T15:14:19;2.97;;;2.30;;
9160;SDS011;4615;51.340;8.288;2022-08-05T15:16:45;3.97;;;2.23;;
9160;SDS011;4615;51.340;8.288;2022-08-05T15:19:12;4.83;;;2.67;;